ADDS METAR Data INFO
IDs: Format: Raw Decoded Include TAF

Data at: 1329 UTC 19 Jul 2018

KFCH 191315Z AUTO 00000KT 9SM OVC080 25/15 A2987 RMK A01
KFCH 191255Z AUTO 00000KT 10SM OVC080 25/15 A2987 RMK A01
KFCH 191235Z AUTO 00000KT 10SM OVC075 25/15 A2986 RMK A01
KFCH 191215Z AUTO 01003KT 10SM OVC075 25/15 A2985 RMK A01
KFCH 191155Z AUTO 00000KT 10SM OVC075 26/15 A2986 RMK A01
KFCH 191135Z AUTO 02003KT 10SM OVC080 26/15 A2985 RMK A01
KFCH 191115Z AUTO 01003KT 10SM OVC080 26/15 A2985 RMK A01
KFCH 191055Z AUTO 00000KT 10SM OVC080 26/15 A2985 RMK A01
KFCH 191035Z AUTO 00000KT 10SM OVC080 26/15 A2985 RMK A01
KFCH 191015Z AUTO 34003KT 10SM OVC080 26/14 A2985 RMK A01
KFCH 190955Z AUTO 30004KT 10SM OVC075 27/15 A2985 RMK A01
KFCH 190935Z AUTO 29004KT 10SM OVC080 27/14 A2985 RMK A01
KFCH 190915Z AUTO 31006KT 10SM OVC075 27/14 A2985 RMK A01
KFCH 190855Z AUTO 30004KT 10SM OVC075 27/14 A2985 RMK A01
KFCH 190835Z AUTO 31004KT 10SM OVC075 28/14 A2985 RMK A01
KFCH 190815Z AUTO 31005KT 10SM OVC080 28/14 A2985 RMK A01
KFCH 190755Z AUTO 31007KT 10SM SCT075 OVC090 28/14 A2985 RMK A01
KFCH 190735Z AUTO 31007KT 10SM OVC090 29/14 A2986 RMK A01
KFCH 190715Z AUTO 30005KT 10SM OVC090 29/15 A2986 RMK A01
KFCH 190655Z AUTO 29004KT 10SM OVC090 29/16 A2986 RMK A01
KFCH 190635Z AUTO 28004KT 10SM OVC090 30/16 A2986 RMK A01
KFCH 190615Z AUTO 27004KT 10SM OVC100 31/16 A2986 RMK A01
KFCH 190555Z AUTO 27003KT 10SM OVC100 31/15 A2985 RMK A01
KFCH 190535Z AUTO 28003KT 10SM OVC095 32/15 A2985 RMK A01
KFCH 190515Z AUTO 00000KT 10SM OVC095 32/14 A2985 RMK A01
KFCH 190455Z AUTO 25003KT 10SM SCT095 34/13 A2985 RMK A01
KFCH 190435Z AUTO 00000KT 10SM CLR 34/12 A2984 RMK A01
KFCH 190415Z AUTO 31005KT 10SM CLR 34/12 A2983 RMK A01
KFCH 190355Z AUTO 32003KT 10SM CLR 35/11 A2984 RMK A01
KFCH 190335Z AUTO 30005KT 10SM CLR 36/12 A2983 RMK A01
KFCH 190315Z AUTO 30008KT 10SM CLR 37/09 A2982 RMK A01
KFCH 190255Z AUTO 30009KT 10SM CLR 38/07 A2982 RMK A01
KFCH 190235Z AUTO 30009KT 10SM CLR 38/07 A2982 RMK A01
KFCH 190215Z AUTO 30008KT 10SM CLR 39/06 A2982 RMK A01
KFCH 190155Z AUTO 29008KT 10SM CLR 39/04 A2982 RMK A01
KFCH 190135Z AUTO 26007KT 10SM CLR 39/09 A2982 RMK A01
KFCH 190115Z AUTO 26008KT 10SM CLR 39/12 A2982 RMK A01
KFCH 190055Z AUTO 26008KT 10SM CLR 39/11 A2982 RMK A01
KFCH 190035Z AUTO 25008KT 10SM CLR 39/09 A2983 RMK A01
KFCH 190015Z AUTO 26008KT 10SM CLR 40/07 A2983 RMK A01
KFCH 182355Z AUTO 26008KT 10SM CLR 40/06 A2984 RMK A01
KFCH 182335Z AUTO 24006KT 10SM CLR 39/05 A2985 RMK A01
KFCH 182315Z AUTO 25006KT 10SM CLR 40/06 A2985 RMK A01
KFCH 182255Z AUTO 23007KT 10SM CLR 39/10 A2986 RMK A01
KFCH 182235Z AUTO 25007KT 10SM CLR 39/10 A2986 RMK A01
KFCH 182215Z AUTO 25009KT 10SM CLR 39/11 A2986 RMK A01
KFCH 182155Z AUTO 27008KT 9SM CLR 39/07 A2986 RMK A01
KFCH 182135Z AUTO 28008KT 10SM CLR 39/08 A2987 RMK A01
KFCH 182115Z AUTO 26008KT 230V300 10SM CLR 39/10 A2988 RMK A01
KFCH 182055Z AUTO 31007KT 10SM CLR 39/10 A2988 RMK A01
KFCH 182035Z AUTO 27005KT 10SM CLR 38/10 A2989 RMK A01
KFCH 182015Z AUTO 26005KT 10SM CLR 38/11 A2989 RMK A01
KFCH 181955Z AUTO 31005KT 10SM CLR 37/11 A2990 RMK A01
KFCH 181930Z AUTO 29006KT 9SM CLR 37/11 A2991 RMK A01
KFCH 181915Z AUTO 32006KT 9SM CLR 36/11 A2991 RMK A01
KFCH 181855Z AUTO VRB04KT 7SM CLR 35/11 A2992 RMK A01
KFCH 181835Z AUTO 28006KT 7SM CLR 35/11 A2992 RMK A01
KFCH 181815Z AUTO 29006KT 7SM CLR 34/11 A2992 RMK A01
KFCH 181755Z AUTO VRB04KT 7SM CLR 33/11 A2993 RMK A01
KFCH 181735Z AUTO 29006KT 9SM CLR 32/12 A2993 RMK A01
KFCH 181715Z AUTO 24005KT 9SM CLR 31/12 A2993 RMK A01
KFCH 181655Z AUTO 25004KT 6SM HZ CLR 30/12 A2993 RMK A01
KFCH 181635Z AUTO 00000KT 8SM CLR 30/12 A2993 RMK A01
KFCH 181615Z AUTO 00000KT 8SM CLR 29/11 A2993 RMK A01
KFCH 181555Z AUTO 00000KT 9SM CLR 28/12 A2993 RMK A01
KFCH 181535Z AUTO 00000KT 9SM CLR 28/11 A2993 RMK A01
KFCH 181515Z AUTO 00000KT 9SM CLR 27/11 A2992 RMK A01
KFCH 181455Z AUTO 00000KT 10SM CLR 26/11 A2992 RMK A01
KFCH 181435Z AUTO 00000KT 8SM CLR 25/12 A2992 RMK A01
KFCH 181415Z AUTO 28004KT 10SM CLR 23/12 A2991 RMK A01
KFCH 181355Z AUTO 00000KT 10SM CLR 23/12 A2991 RMK A01
KFCH 181335Z AUTO 26004KT 9SM CLR 23/12 A2991 RMK A01
KFCH 181315Z AUTO 24003KT 9SM CLR 23/12 A2991 RMK A01
KFCH 181255Z AUTO 00000KT 10SM FEW050 24/11 A2990 RMK A01
KFCH 181235Z AUTO 00000KT 10SM BKN050 BKN055 24/11 A2990 RMK A01
KFCH 181215Z AUTO 00000KT 10SM OVC050 24/11 A2989 RMK A01
KFCH 181155Z AUTO 00000KT 10SM OVC049 24/10 A2989 RMK A01
KFCH 181135Z AUTO 36004KT 10SM BKN050 25/10 A2989 RMK A01
KFCH 181115Z AUTO 00000KT 10SM SCT050 25/09 A2989 RMK A01
KFCH 181055Z AUTO 33005KT 10SM BKN050 25/09 A2989 RMK A01
KFCH 181035Z AUTO 30003KT 10SM BKN050 25/09 A2989 RMK A01
KFCH 181015Z AUTO 32003KT 10SM BKN050 26/09 A2989 RMK A01
KFCH 180955Z AUTO 32004KT 10SM BKN050 26/10 A2989 RMK A01
KFCH 180935Z AUTO 31005KT 10SM OVC050 26/10 A2989 RMK A01
KFCH 180915Z AUTO 30009KT 10SM OVC050 27/10 A2989 RMK A01
KFCH 180855Z AUTO 32006KT 10SM OVC055 27/10 A2989 RMK A01
KFCH 180835Z AUTO 30008KT 10SM BKN055 27/11 A2989 RMK A01
KFCH 180815Z AUTO 30008KT 10SM OVC060 27/11 A2989 RMK A01
KFCH 180755Z AUTO 30008KT 10SM OVC055 27/11 A2989 RMK A01
KFCH 180735Z AUTO 30009KT 10SM OVC055 28/11 A2989 RMK A01
KFCH 180715Z AUTO 30009KT 10SM OVC055 28/12 A2989 RMK A01
KFCH 180655Z AUTO 30007KT 10SM OVC055 28/13 A2989 RMK A01
KFCH 180635Z AUTO 29006KT 10SM OVC050 29/13 A2989 RMK A01
KFCH 180615Z AUTO 29006KT 10SM OVC050 29/14 A2988 RMK A01
KFCH 180555Z AUTO 30006KT 10SM OVC050 30/14 A2988 RMK A01
KFCH 180535Z AUTO 30007KT 10SM OVC050 30/13 A2987 RMK A01
KFCH 180515Z AUTO 30006KT 10SM OVC050 30/14 A2987 RMK A01
KFCH 180455Z AUTO 30004KT 10SM BKN050 31/14 A2987 RMK A01
KFCH 180435Z AUTO 31005KT 10SM CLR 31/14 A2986 RMK A01
KFCH 180415Z AUTO 30004KT 10SM CLR 32/14 A2985 RMK A01
KFCH 180355Z AUTO 28004KT 10SM CLR 33/13 A2985 RMK A01
KFCH 180335Z AUTO 30005KT 10SM CLR 34/13 A2985 RMK A01
KFCH 180315Z AUTO 31006KT 10SM CLR 35/13 A2984 RMK A01
KFCH 180255Z AUTO 31006G11KT 10SM CLR 36/12 A2984 RMK A01
KFCH 180235Z AUTO 31008KT 10SM CLR 36/12 A2984 RMK A01
KFCH 180215Z AUTO 30011KT 10SM CLR 37/12 A2983 RMK A01
KFCH 180155Z AUTO 30011KT 10SM CLR 38/11 A2983 RMK A01
KFCH 180135Z AUTO 29012KT 10SM CLR 39/09 A2983 RMK A01